createdAt,value
2017-08-29T00:00:57.727Z,14.10
2017-08-29T00:03:23.815Z,14.10
2017-08-29T00:05:49.935Z,14.10
2017-08-29T00:08:16.052Z,14.10
2017-08-29T00:10:42.123Z,14.00
2017-08-29T00:13:08.237Z,13.90
2017-08-29T00:15:34.564Z,13.90
2017-08-29T00:18:00.680Z,13.90
2017-08-29T00:20:27.090Z,13.80
2017-08-29T00:22:53.223Z,13.90
2017-08-29T00:25:19.313Z,13.80
2017-08-29T00:27:45.403Z,13.80
2017-08-29T00:30:11.756Z,13.80
2017-08-29T00:32:38.663Z,13.80
2017-08-29T00:35:04.762Z,13.80
2017-08-29T00:37:30.866Z,13.60
2017-08-29T00:39:56.938Z,13.70
2017-08-29T00:42:23.045Z,13.60
2017-08-29T00:44:49.168Z,13.70
2017-08-29T00:47:15.254Z,13.60
2017-08-29T00:49:41.345Z,13.70
2017-08-29T00:52:07.459Z,13.60
2017-08-29T00:54:33.538Z,13.70
2017-08-29T00:56:59.652Z,13.60
2017-08-29T00:59:25.764Z,13.60
2017-08-29T01:01:51.861Z,13.50
2017-08-29T01:04:17.959Z,13.50
2017-08-29T01:06:44.096Z,13.50
2017-08-29T01:09:10.210Z,13.50
2017-08-29T01:11:36.303Z,13.40
2017-08-29T01:14:02.430Z,13.40
2017-08-29T01:16:28.539Z,13.40
2017-08-29T01:18:54.621Z,13.50
2017-08-29T01:21:20.737Z,13.40
2017-08-29T01:23:46.802Z,13.40
2017-08-29T01:26:12.933Z,13.40
2017-08-29T01:28:39.070Z,13.30
2017-08-29T01:31:05.215Z,13.30
2017-08-29T01:33:31.298Z,13.30
2017-08-29T01:35:57.410Z,13.20
2017-08-29T01:38:23.544Z,13.10
2017-08-29T01:40:49.641Z,13.10
2017-08-29T01:43:15.762Z,13.00
2017-08-29T01:45:41.834Z,13.00
2017-08-29T01:48:07.936Z,13.00
2017-08-29T01:50:34.063Z,12.90
2017-08-29T01:53:00.152Z,12.90
2017-08-29T01:55:26.222Z,12.80
2017-08-29T01:57:52.321Z,12.80
2017-08-29T02:00:18.398Z,12.80
2017-08-29T02:02:44.513Z,12.70
2017-08-29T02:05:10.638Z,12.80
2017-08-29T02:07:36.744Z,12.80
2017-08-29T02:10:02.840Z,12.80
2017-08-29T02:12:28.968Z,12.90
2017-08-29T02:14:55.021Z,12.80
2017-08-29T02:17:21.094Z,12.80
2017-08-29T02:19:47.210Z,12.70
2017-08-29T02:22:13.288Z,12.80
2017-08-29T02:24:39.389Z,12.70
2017-08-29T02:27:05.694Z,12.60
2017-08-29T02:29:31.801Z,12.60
2017-08-29T02:31:57.893Z,12.60
2017-08-29T02:34:24.006Z,12.50
2017-08-29T02:36:50.079Z,12.50
2017-08-29T02:39:16.136Z,12.50
2017-08-29T02:41:42.250Z,12.50
2017-08-29T02:44:08.319Z,12.50
2017-08-29T02:46:34.401Z,12.60
2017-08-29T02:49:00.513Z,12.50
2017-08-29T02:51:26.613Z,12.50
2017-08-29T02:53:52.675Z,12.40
2017-08-29T02:56:18.819Z,12.30
2017-08-29T02:58:44.898Z,12.40
2017-08-29T03:01:10.987Z,12.40
2017-08-29T03:03:37.093Z,12.30
2017-08-29T03:06:03.193Z,12.40
2017-08-29T03:08:29.273Z,12.40
2017-08-29T03:10:55.365Z,12.40
2017-08-29T03:13:21.450Z,12.30
2017-08-29T03:15:47.513Z,12.30
2017-08-29T03:18:13.613Z,12.30
2017-08-29T03:20:39.705Z,12.30
2017-08-29T03:23:05.807Z,12.30
2017-08-29T03:25:31.912Z,12.30
2017-08-29T03:27:57.979Z,12.30
2017-08-29T03:30:24.290Z,12.20
2017-08-29T03:32:50.391Z,12.20
2017-08-29T03:35:16.476Z,12.10
2017-08-29T03:37:42.596Z,12.10
2017-08-29T03:40:08.713Z,12.10
2017-08-29T03:42:34.793Z,12.10
2017-08-29T03:45:00.878Z,12.20
2017-08-29T03:47:26.979Z,12.20
2017-08-29T03:49:53.061Z,12.30
2017-08-29T03:52:19.150Z,12.30
2017-08-29T03:54:45.276Z,12.30
2017-08-29T03:57:11.349Z,12.30
2017-08-29T03:59:37.461Z,12.30
2017-08-29T04:02:03.565Z,12.20
2017-08-29T04:04:29.619Z,12.30
2017-08-29T04:06:55.712Z,12.20
2017-08-29T04:09:21.827Z,12.20
2017-08-29T04:11:47.948Z,12.20
2017-08-29T04:14:14.035Z,12.30
2017-08-29T04:16:40.205Z,12.30
2017-08-29T04:19:06.309Z,12.30
2017-08-29T04:21:32.375Z,12.30
2017-08-29T04:23:58.667Z,12.30
2017-08-29T04:26:24.745Z,12.40
2017-08-29T04:28:50.841Z,12.40
2017-08-29T04:31:16.999Z,12.50
2017-08-29T04:33:43.119Z,12.50
2017-08-29T04:36:09.235Z,12.50
2017-08-29T04:38:35.380Z,12.50
2017-08-29T04:41:01.460Z,12.50
2017-08-29T04:43:27.575Z,12.60
2017-08-29T04:45:53.699Z,12.70
2017-08-29T04:48:19.790Z,12.70
2017-08-29T04:50:45.889Z,12.80
2017-08-29T04:53:12.019Z,12.80
2017-08-29T04:55:38.119Z,12.90
2017-08-29T04:58:04.194Z,13.00
2017-08-29T05:00:30.301Z,12.90
2017-08-29T05:02:56.420Z,12.90
2017-08-29T05:05:22.524Z,13.00
2017-08-29T05:07:48.655Z,13.10
2017-08-29T05:10:14.736Z,13.10
2017-08-29T05:12:40.801Z,13.20
2017-08-29T05:15:06.926Z,13.30
2017-08-29T05:17:33.020Z,13.30
2017-08-29T05:19:59.100Z,13.40
2017-08-29T05:22:25.201Z,13.50
2017-08-29T05:24:51.434Z,13.60
2017-08-29T05:27:17.553Z,13.70
2017-08-29T05:29:43.721Z,13.70
2017-08-29T05:32:09.787Z,13.80
2017-08-29T05:34:35.909Z,13.90
2017-08-29T05:37:02.031Z,14.00
2017-08-29T05:39:28.135Z,14.10
2017-08-29T05:41:54.257Z,14.20
2017-08-29T05:44:20.382Z,14.20
2017-08-29T05:46:46.475Z,14.30
2017-08-29T05:49:12.557Z,14.40
2017-08-29T05:51:38.681Z,14.50
2017-08-29T05:54:04.766Z,14.60
2017-08-29T05:56:30.851Z,14.80
2017-08-29T05:58:56.966Z,14.90
2017-08-29T06:01:23.067Z,15.20
2017-08-29T06:03:49.166Z,15.40
2017-08-29T06:06:15.286Z,15.60
2017-08-29T06:08:41.386Z,15.90
2017-08-29T06:11:07.440Z,15.90
2017-08-29T06:13:33.575Z,16.00
2017-08-29T06:15:59.682Z,16.30
2017-08-29T06:18:25.787Z,16.40
2017-08-29T06:20:51.911Z,16.60
2017-08-29T06:23:18.002Z,16.70
2017-08-29T06:25:44.081Z,16.70
2017-08-29T06:28:10.189Z,16.80
2017-08-29T06:30:36.282Z,16.90
2017-08-29T06:33:02.412Z,17.00
2017-08-29T06:35:28.481Z,17.20
2017-08-29T06:37:54.589Z,17.20
2017-08-29T06:40:20.721Z,17.10
2017-08-29T06:42:46.800Z,17.30
2017-08-29T06:45:12.937Z,17.50
2017-08-29T06:47:39.063Z,17.70
2017-08-29T06:50:05.241Z,18.00
2017-08-29T06:52:31.312Z,18.10
2017-08-29T06:54:57.400Z,18.20
2017-08-29T06:57:23.526Z,18.30
2017-08-29T06:59:49.684Z,18.20
2017-08-29T07:02:15.801Z,18.30
2017-08-29T07:04:41.918Z,18.30
2017-08-29T07:07:08.033Z,18.50
2017-08-29T07:09:34.118Z,18.70
2017-08-29T07:12:00.300Z,18.90
2017-08-29T07:14:26.432Z,19.00
2017-08-29T07:16:52.565Z,19.20
2017-08-29T07:19:18.699Z,19.20
2017-08-29T07:21:44.774Z,19.20
2017-08-29T07:24:10.873Z,19.40
2017-08-29T07:26:36.972Z,19.60
2017-08-29T07:29:03.107Z,19.80
2017-08-29T07:31:29.310Z,19.90
2017-08-29T07:33:55.436Z,20.10
2017-08-29T07:36:21.555Z,20.00
2017-08-29T07:38:47.684Z,19.90
2017-08-29T07:41:13.788Z,20.00
2017-08-29T07:43:39.844Z,20.00
2017-08-29T07:46:05.988Z,20.40
2017-08-29T07:48:32.092Z,20.60
2017-08-29T07:50:58.208Z,20.60
2017-08-29T07:53:24.336Z,20.80
2017-08-29T07:55:50.478Z,20.70
2017-08-29T07:58:16.594Z,20.50
2017-08-29T08:00:42.804Z,20.70
2017-08-29T08:03:08.912Z,20.60
2017-08-29T08:05:35.027Z,20.70
2017-08-29T08:08:01.180Z,21.00
2017-08-29T08:10:27.257Z,21.40
2017-08-29T08:12:53.394Z,21.40
2017-08-29T08:15:19.623Z,21.30
2017-08-29T08:17:45.750Z,21.40
2017-08-29T08:20:11.865Z,21.60
2017-08-29T08:22:37.980Z,21.60
2017-08-29T08:25:04.099Z,21.70
2017-08-29T08:27:30.241Z,21.80
2017-08-29T08:29:56.357Z,21.90
2017-08-29T08:32:29.422Z,22.00
2017-08-29T08:34:55.557Z,22.10
2017-08-29T08:37:21.815Z,22.20
2017-08-29T08:39:47.908Z,22.20
2017-08-29T08:42:14.002Z,22.00
2017-08-29T08:44:40.109Z,22.00
2017-08-29T08:47:06.181Z,22.10
2017-08-29T08:49:32.289Z,22.30
2017-08-29T08:51:58.385Z,22.40
2017-08-29T08:54:24.491Z,22.50
2017-08-29T08:56:50.660Z,22.70
2017-08-29T08:59:16.793Z,22.90
2017-08-29T09:01:42.929Z,23.00
2017-08-29T09:04:09.044Z,23.20
2017-08-29T09:06:35.178Z,23.30
2017-08-29T09:09:01.297Z,23.20
2017-08-29T09:11:27.420Z,23.50
2017-08-29T09:13:53.545Z,23.60
2017-08-29T09:16:19.752Z,23.60
2017-08-29T09:18:46.644Z,23.70
2017-08-29T09:21:12.743Z,23.80
2017-08-29T09:23:38.844Z,23.70
2017-08-29T09:26:04.940Z,23.90
2017-08-29T09:28:31.070Z,23.90
2017-08-29T09:30:57.202Z,24.20
2017-08-29T09:33:23.280Z,24.30
2017-08-29T09:35:49.404Z,24.40
2017-08-29T09:38:15.510Z,24.50
2017-08-29T09:40:41.593Z,24.60
2017-08-29T09:43:07.834Z,24.60
2017-08-29T09:45:33.952Z,24.70
2017-08-29T09:48:00.022Z,24.70
2017-08-29T09:50:26.089Z,24.70
2017-08-29T09:52:52.166Z,24.80
2017-08-29T09:55:18.304Z,24.90
2017-08-29T09:57:44.410Z,24.90
2017-08-29T10:00:10.538Z,25.00
2017-08-29T10:02:36.611Z,25.00
2017-08-29T10:05:02.731Z,25.00
2017-08-29T10:07:28.869Z,25.10
2017-08-29T10:09:54.996Z,25.10
2017-08-29T10:12:21.084Z,25.20
2017-08-29T10:14:47.216Z,25.30
2017-08-29T10:17:13.304Z,25.30
2017-08-29T10:19:39.394Z,25.50
2017-08-29T10:22:05.494Z,25.50
2017-08-29T10:24:31.588Z,25.50
2017-08-29T10:26:57.697Z,25.60
2017-08-29T10:29:23.822Z,25.70
2017-08-29T10:31:49.930Z,25.60
2017-08-29T10:34:16.054Z,25.70
2017-08-29T10:36:42.171Z,25.60
2017-08-29T10:39:08.248Z,25.50
2017-08-29T10:41:34.390Z,25.50
2017-08-29T10:44:00.471Z,25.40
2017-08-29T10:46:26.594Z,25.40
2017-08-29T10:48:52.744Z,25.50
2017-08-29T10:51:18.846Z,25.60
2017-08-29T10:53:44.956Z,25.70
2017-08-29T10:56:11.082Z,25.80
2017-08-29T10:58:37.188Z,25.90
2017-08-29T11:01:03.324Z,25.80
2017-08-29T11:03:29.441Z,25.70
2017-08-29T11:05:55.608Z,26.00
2017-08-29T11:08:21.697Z,26.00
2017-08-29T11:10:47.873Z,26.20
2017-08-29T11:13:14.019Z,26.40
2017-08-29T11:15:40.137Z,26.40
2017-08-29T11:18:06.246Z,26.50
2017-08-29T11:20:32.416Z,26.60
2017-08-29T11:22:58.585Z,26.50
2017-08-29T11:25:24.718Z,26.70
2017-08-29T11:27:50.827Z,26.80
2017-08-29T11:30:16.915Z,26.90
2017-08-29T11:32:42.969Z,27.00
2017-08-29T11:35:09.061Z,27.10
2017-08-29T11:37:35.198Z,27.20
2017-08-29T11:40:01.314Z,27.70
2017-08-29T11:42:27.398Z,27.80
2017-08-29T11:44:53.538Z,28.30
2017-08-29T11:47:19.670Z,29.30
2017-08-29T11:49:45.774Z,30.00
2017-08-29T11:52:11.913Z,31.60
2017-08-29T11:54:38.052Z,32.20
2017-08-29T11:57:05.087Z,34.00
2017-08-29T11:59:31.196Z,34.90
2017-08-29T12:01:57.291Z,36.10
2017-08-29T12:04:23.405Z,34.90
2017-08-29T12:06:49.834Z,34.80
2017-08-29T12:09:15.926Z,35.50
2017-08-29T12:11:42.056Z,37.20
2017-08-29T12:14:08.146Z,37.00
2017-08-29T12:16:34.254Z,36.60
2017-08-29T12:19:00.338Z,38.40
2017-08-29T12:21:26.445Z,38.80
2017-08-29T12:23:52.583Z,39.60
2017-08-29T12:26:18.672Z,37.30
2017-08-29T12:28:44.777Z,37.60
2017-08-29T12:31:10.874Z,35.80
2017-08-29T12:33:36.969Z,35.30
2017-08-29T12:36:03.084Z,36.90
2017-08-29T12:38:29.170Z,36.60
2017-08-29T12:40:55.345Z,36.80
2017-08-29T12:43:21.539Z,37.70
2017-08-29T12:45:48.002Z,34.40
2017-08-29T12:48:14.107Z,35.10
2017-08-29T12:50:40.207Z,38.00
2017-08-29T12:53:06.321Z,40.10
2017-08-29T12:55:32.446Z,41.80
2017-08-29T12:57:58.524Z,41.90
2017-08-29T13:00:24.644Z,40.40
2017-08-29T13:02:50.736Z,40.60
2017-08-29T13:05:16.876Z,39.60
2017-08-29T13:07:42.987Z,39.30
2017-08-29T13:10:09.114Z,39.70
2017-08-29T13:12:35.233Z,38.90
2017-08-29T13:15:01.383Z,37.70
2017-08-29T13:17:27.484Z,40.10
2017-08-29T13:19:53.787Z,38.40
2017-08-29T13:22:19.861Z,37.90
2017-08-29T13:27:18.696Z,38.70
2017-08-29T13:29:44.818Z,39.00
2017-08-29T13:32:10.921Z,37.90
2017-08-29T13:34:37.080Z,39.60
2017-08-29T13:37:03.166Z,40.70
2017-08-29T13:39:29.272Z,39.90
2017-08-29T13:41:55.392Z,41.60
2017-08-29T13:44:21.520Z,42.30
2017-08-29T13:46:47.640Z,40.50
2017-08-29T13:49:13.870Z,37.60
2017-08-29T13:51:39.968Z,36.00
2017-08-29T13:54:06.118Z,36.50
2017-08-29T13:56:32.252Z,36.20
2017-08-29T13:58:58.373Z,38.20
2017-08-29T14:01:24.458Z,40.60
2017-08-29T14:03:50.626Z,41.00
2017-08-29T14:06:16.760Z,41.20
2017-08-29T14:08:42.944Z,40.30
2017-08-29T14:11:09.029Z,40.80
2017-08-29T14:13:35.104Z,41.60
2017-08-29T14:16:01.208Z,41.40
2017-08-29T14:18:27.306Z,41.00
2017-08-29T14:20:53.419Z,42.00
2017-08-29T14:23:19.488Z,41.70
2017-08-29T14:25:45.555Z,41.20
2017-08-29T14:28:11.681Z,38.50
2017-08-29T14:30:37.775Z,38.20
2017-08-29T14:33:03.874Z,38.30
2017-08-29T14:35:29.924Z,36.40
2017-08-29T14:37:56.016Z,37.10
2017-08-29T14:40:22.096Z,36.60
2017-08-29T14:42:48.234Z,36.10
2017-08-29T14:45:14.351Z,37.60
2017-08-29T14:47:59.299Z,39.20
2017-08-29T14:50:25.354Z,39.90
2017-08-29T14:52:51.429Z,41.40
2017-08-29T14:55:17.553Z,40.40
2017-08-29T14:57:43.669Z,40.00
2017-08-29T15:00:09.809Z,39.90
2017-08-29T15:02:35.877Z,40.80
2017-08-29T15:05:01.974Z,41.50
2017-08-29T15:07:28.075Z,41.40
2017-08-29T15:09:54.135Z,41.60
2017-08-29T15:12:20.215Z,39.60
2017-08-29T15:14:46.295Z,37.20
2017-08-29T15:17:12.362Z,39.20
2017-08-29T15:19:38.400Z,38.50
2017-08-29T15:22:05.685Z,38.70
2017-08-29T15:24:31.827Z,38.60
2017-08-29T15:26:57.910Z,39.00
2017-08-29T15:29:24.017Z,38.60
2017-08-29T15:31:50.136Z,40.60
2017-08-29T15:34:16.199Z,40.80
2017-08-29T15:36:42.273Z,41.40
2017-08-29T15:39:08.374Z,41.10
2017-08-29T15:41:34.469Z,41.00
2017-08-29T15:44:00.546Z,41.40
2017-08-29T15:46:26.640Z,41.10
2017-08-29T15:48:52.707Z,42.00
2017-08-29T15:51:18.791Z,42.10
2017-08-29T15:53:44.911Z,42.10
2017-08-29T15:56:10.967Z,41.30
2017-08-29T15:58:37.111Z,41.60
2017-08-29T16:01:03.219Z,41.60
2017-08-29T16:03:29.323Z,41.90
2017-08-29T16:05:55.418Z,40.90
2017-08-29T16:08:21.571Z,40.40
2017-08-29T16:10:47.675Z,40.10
2017-08-29T16:13:13.766Z,40.00
2017-08-29T16:15:39.870Z,40.90
2017-08-29T16:18:05.990Z,40.40
2017-08-29T16:20:32.219Z,39.80
2017-08-29T16:22:58.317Z,40.10
2017-08-29T16:25:24.368Z,41.00
2017-08-29T16:27:50.474Z,40.50
2017-08-29T16:30:16.578Z,39.30
2017-08-29T16:32:42.664Z,40.20
2017-08-29T16:35:08.755Z,40.30
2017-08-29T16:37:34.855Z,40.10
2017-08-29T16:40:00.938Z,39.30
2017-08-29T16:42:27.032Z,38.40
2017-08-29T16:44:53.136Z,39.10
2017-08-29T16:47:19.227Z,38.80
2017-08-29T16:49:45.329Z,38.40
2017-08-29T16:52:13.332Z,38.00
2017-08-29T16:54:39.444Z,37.90
2017-08-29T16:57:05.524Z,37.70
2017-08-29T16:59:32.470Z,37.30
2017-08-29T17:01:58.579Z,35.80
2017-08-29T17:04:24.708Z,35.80
2017-08-29T17:06:50.840Z,35.80
2017-08-29T17:09:16.991Z,34.90
2017-08-29T17:11:44.070Z,33.30
2017-08-29T17:14:10.154Z,32.10
2017-08-29T17:16:36.256Z,30.90
2017-08-29T17:19:02.566Z,30.10
2017-08-29T17:21:28.657Z,29.50
2017-08-29T17:23:54.870Z,29.00
2017-08-29T17:26:20.992Z,28.70
2017-08-29T17:28:47.062Z,28.40
2017-08-29T17:31:13.157Z,27.90
2017-08-29T17:33:39.270Z,27.60
2017-08-29T17:36:05.332Z,27.40
2017-08-29T17:38:31.473Z,27.10
2017-08-29T17:40:57.635Z,26.90
2017-08-29T17:43:23.753Z,26.60
2017-08-29T17:45:49.877Z,26.20
2017-08-29T17:48:15.981Z,26.00
2017-08-29T17:50:42.097Z,25.80
2017-08-29T17:53:08.203Z,25.60
2017-08-29T17:55:34.402Z,25.50
2017-08-29T17:58:00.497Z,25.30
2017-08-29T18:00:26.565Z,25.10
2017-08-29T18:02:52.680Z,24.90
2017-08-29T18:05:18.835Z,24.90
2017-08-29T18:07:45.990Z,24.70
2017-08-29T18:10:12.137Z,24.60
2017-08-29T18:12:38.205Z,24.40
2017-08-29T18:15:04.367Z,24.40
2017-08-29T18:17:30.470Z,24.30
2017-08-29T18:19:56.791Z,24.10
2017-08-29T18:22:22.952Z,24.00
2017-08-29T18:24:49.070Z,24.00
2017-08-29T18:27:15.199Z,24.00
2017-08-29T18:29:41.291Z,23.90
2017-08-29T18:32:07.437Z,23.90
2017-08-29T18:34:33.535Z,23.50
2017-08-29T18:36:59.705Z,23.50
2017-08-29T18:39:25.811Z,23.30
2017-08-29T18:41:51.912Z,23.00
2017-08-29T18:44:18.006Z,22.90
2017-08-29T18:46:44.139Z,22.90
2017-08-29T18:49:11.175Z,22.80
2017-08-29T18:51:37.310Z,22.50
2017-08-29T18:54:03.381Z,22.30
2017-08-29T18:56:29.476Z,22.20
2017-08-29T18:58:55.564Z,22.10
2017-08-29T19:01:21.688Z,22.10
2017-08-29T19:03:47.777Z,22.00
2017-08-29T19:06:13.921Z,22.00
2017-08-29T19:08:40.016Z,22.00
2017-08-29T19:11:06.136Z,22.00
2017-08-29T19:13:32.365Z,22.00
2017-08-29T19:15:58.847Z,22.00
2017-08-29T19:18:24.954Z,21.90
2017-08-29T19:20:51.046Z,21.90
2017-08-29T19:23:17.135Z,21.80
2017-08-29T19:25:44.201Z,21.70
2017-08-29T19:28:21.579Z,21.70
2017-08-29T19:30:47.655Z,21.70
2017-08-29T19:33:13.773Z,21.60
2017-08-29T19:35:39.870Z,21.50
2017-08-29T19:38:05.935Z,21.50
2017-08-29T19:40:32.047Z,21.40
2017-08-29T19:42:58.147Z,21.30
2017-08-29T19:45:24.267Z,21.20
2017-08-29T19:47:50.378Z,21.20
2017-08-29T19:50:16.515Z,21.10
2017-08-29T19:52:43.591Z,21.10
2017-08-29T19:55:09.703Z,20.90
2017-08-29T19:57:35.763Z,20.80
2017-08-29T20:00:01.880Z,20.60
2017-08-29T20:02:27.995Z,20.50
2017-08-29T20:04:54.093Z,20.50
2017-08-29T20:07:20.165Z,20.50
2017-08-29T20:09:46.273Z,20.30
2017-08-29T20:12:12.397Z,20.20
2017-08-29T20:14:38.513Z,20.10
2017-08-29T20:17:04.675Z,20.10
2017-08-29T20:19:30.807Z,20.10
2017-08-29T20:21:56.893Z,20.10
2017-08-29T20:24:23.310Z,20.10
2017-08-29T20:26:49.439Z,20.10
2017-08-29T20:29:15.530Z,20.10
2017-08-29T20:31:41.640Z,19.90
2017-08-29T20:34:07.771Z,19.80
2017-08-29T20:36:33.956Z,19.80
2017-08-29T20:39:00.059Z,19.80
2017-08-29T20:41:26.144Z,19.70
2017-08-29T20:43:52.277Z,19.70
2017-08-29T20:46:18.348Z,19.60
2017-08-29T20:48:44.431Z,19.50
2017-08-29T20:51:10.530Z,19.50
2017-08-29T20:53:36.614Z,19.40
2017-08-29T20:56:02.800Z,19.40
2017-08-29T20:58:28.901Z,19.40
2017-08-29T21:00:54.996Z,19.20
2017-08-29T21:03:21.102Z,19.10
2017-08-29T21:05:47.215Z,19.10
2017-08-29T21:08:13.274Z,18.90
2017-08-29T21:10:39.352Z,18.90
2017-08-29T21:13:05.458Z,18.80
2017-08-29T21:15:31.530Z,18.80
2017-08-29T21:17:57.744Z,18.70
2017-08-29T21:20:23.900Z,18.70
2017-08-29T21:22:50.026Z,18.70
2017-08-29T21:25:16.219Z,18.70
2017-08-29T21:27:42.320Z,18.70
2017-08-29T21:30:08.432Z,18.70
2017-08-29T21:32:34.696Z,18.60
2017-08-29T21:35:00.804Z,18.70
2017-08-29T21:37:26.904Z,18.70
2017-08-29T21:39:53.005Z,18.70
2017-08-29T21:42:19.081Z,18.70
2017-08-29T21:44:45.263Z,18.80
2017-08-29T21:47:11.334Z,18.70
2017-08-29T21:49:37.440Z,18.70
2017-08-29T21:52:03.552Z,18.70
2017-08-29T21:54:29.630Z,18.60
2017-08-29T21:56:55.696Z,18.50
2017-08-29T21:59:21.799Z,18.40
2017-08-29T22:01:47.942Z,18.40
2017-08-29T22:04:14.051Z,18.40
2017-08-29T22:06:40.114Z,18.40
2017-08-29T22:09:06.180Z,18.30
2017-08-29T22:11:32.282Z,18.20
2017-08-29T22:13:58.450Z,18.20
2017-08-29T22:16:24.519Z,18.10
2017-08-29T22:18:50.630Z,18.10
2017-08-29T22:21:16.713Z,18.10
2017-08-29T22:23:42.797Z,18.10
2017-08-29T22:26:08.904Z,18.10
2017-08-29T22:28:35.010Z,18.10
2017-08-29T22:31:01.126Z,18.10
2017-08-29T22:33:27.233Z,18.10
2017-08-29T22:35:53.364Z,18.10
2017-08-29T22:38:19.533Z,18.10
2017-08-29T22:40:45.665Z,18.00
2017-08-29T22:43:11.810Z,17.90
2017-08-29T22:45:37.902Z,17.90
2017-08-29T22:48:04.007Z,17.90
2017-08-29T22:50:30.092Z,17.80
2017-08-29T22:52:56.164Z,17.80
2017-08-29T22:55:22.461Z,17.70
2017-08-29T22:57:48.537Z,17.70
2017-08-29T23:00:15.051Z,17.70
2017-08-29T23:02:41.212Z,17.60
2017-08-29T23:05:07.317Z,17.60
2017-08-29T23:07:33.453Z,17.60
2017-08-29T23:09:59.596Z,17.60
2017-08-29T23:12:25.664Z,17.60
2017-08-29T23:14:51.783Z,17.60
2017-08-29T23:17:17.865Z,17.60
2017-08-29T23:19:43.973Z,17.60
2017-08-29T23:22:10.096Z,17.60
2017-08-29T23:24:36.178Z,17.50
2017-08-29T23:27:02.294Z,17.50
2017-08-29T23:29:28.751Z,17.50
2017-08-29T23:31:55.048Z,17.50
2017-08-29T23:34:21.129Z,17.50
2017-08-29T23:36:47.229Z,17.40
2017-08-29T23:39:13.314Z,17.40
2017-08-29T23:41:39.416Z,17.30
2017-08-29T23:44:06.319Z,17.30
2017-08-29T23:46:32.450Z,17.30
2017-08-29T23:48:58.534Z,17.20
2017-08-29T23:51:24.645Z,17.20
2017-08-29T23:53:50.708Z,17.10
2017-08-29T23:56:16.782Z,17.20
2017-08-29T23:58:43.734Z,17.20
